createdAt,value
2022-12-24T00:01:05.111Z,5.30
2022-12-24T00:03:31.825Z,5.08
2022-12-24T00:05:58.307Z,5.13
2022-12-24T00:08:24.842Z,5.16
2022-12-24T00:10:52.384Z,5.28
2022-12-24T00:13:19.326Z,5.18
2022-12-24T00:15:45.763Z,5.16
2022-12-24T00:18:12.183Z,5.13
2022-12-24T00:20:38.585Z,4.90
2022-12-24T00:23:04.984Z,4.82
2022-12-24T00:25:31.334Z,4.94
2022-12-24T00:27:57.716Z,5.00
2022-12-24T00:30:24.032Z,5.08
2022-12-24T00:32:50.393Z,4.84
2022-12-24T00:35:16.714Z,4.87
2022-12-24T00:37:43.101Z,4.89
2022-12-24T00:40:09.690Z,4.81
2022-12-24T00:42:36.005Z,4.97
2022-12-24T00:45:02.427Z,4.94
2022-12-24T00:47:28.761Z,4.85
2022-12-24T00:49:55.388Z,4.97
2022-12-24T00:52:21.780Z,4.99
2022-12-24T00:54:48.112Z,4.80
2022-12-24T00:57:14.463Z,4.97
2022-12-24T00:59:40.807Z,4.96
2022-12-24T01:02:07.502Z,4.93
2022-12-24T01:04:52.700Z,5.07
2022-12-24T01:07:19.263Z,4.74
2022-12-24T01:09:45.743Z,4.86
2022-12-24T01:12:12.104Z,4.95
2022-12-24T01:14:38.516Z,4.87
2022-12-24T01:17:05.280Z,4.89
2022-12-24T01:19:33.855Z,4.65
2022-12-24T01:22:00.295Z,4.82
2022-12-24T01:24:26.700Z,4.75
2022-12-24T01:26:53.006Z,4.86
2022-12-24T01:29:19.680Z,4.87
2022-12-24T01:31:46.067Z,4.75
2022-12-24T01:34:12.570Z,4.85
2022-12-24T01:36:38.954Z,4.77
2022-12-24T01:39:05.317Z,4.85
2022-12-24T01:41:50.934Z,4.65
2022-12-24T01:44:18.579Z,4.72
2022-12-24T01:46:45.379Z,4.59
2022-12-24T01:49:13.722Z,4.84
2022-12-24T01:51:43.565Z,4.82
2022-12-24T01:54:11.579Z,4.89
2022-12-24T01:56:42.820Z,4.81
2022-12-24T01:59:11.725Z,4.75
2022-12-24T02:01:38.401Z,4.70
2022-12-24T02:04:09.488Z,4.66
2022-12-24T02:06:35.819Z,4.77
2022-12-24T02:09:02.225Z,4.86
2022-12-24T02:11:29.928Z,4.79
2022-12-24T02:13:58.795Z,4.94
2022-12-24T02:16:30.726Z,4.77
2022-12-24T02:19:05.352Z,4.89
2022-12-24T02:21:50.513Z,4.82
2022-12-24T02:24:32.625Z,4.82
2022-12-24T02:27:06.790Z,4.62
2022-12-24T02:29:33.072Z,4.66
2022-12-24T02:32:05.398Z,4.81
2022-12-24T02:34:37.011Z,4.88
2022-12-24T02:37:06.787Z,4.94
2022-12-24T02:39:43.843Z,4.96
2022-12-24T02:42:11.893Z,4.94
2022-12-24T02:44:42.484Z,5.09
2022-12-24T02:47:09.888Z,4.88
2022-12-24T02:49:36.984Z,4.84
2022-12-24T02:52:03.605Z,4.88
2022-12-24T02:54:30.551Z,5.07
2022-12-24T02:57:26.292Z,5.03
2022-12-24T02:59:58.748Z,4.91
2022-12-24T03:02:28.311Z,4.89
2022-12-24T03:04:59.780Z,4.93
2022-12-24T03:07:29.635Z,4.85
2022-12-24T03:09:56.053Z,5.03
2022-12-24T03:12:32.259Z,4.93
2022-12-24T03:14:59.741Z,4.89
2022-12-24T03:17:26.604Z,4.86
2022-12-24T03:19:54.398Z,4.80
2022-12-24T03:22:22.194Z,4.90
2022-12-24T03:24:48.528Z,4.88
2022-12-24T03:27:15.313Z,5.00
2022-12-24T03:29:41.753Z,5.07
2022-12-24T03:32:08.157Z,4.76
2022-12-24T03:34:34.535Z,4.67
2022-12-24T03:37:00.888Z,4.86
2022-12-24T03:39:27.352Z,4.95
2022-12-24T03:41:53.699Z,4.93
2022-12-24T03:44:20.038Z,4.82
2022-12-24T03:46:46.387Z,4.83
2022-12-24T03:49:12.748Z,4.77
2022-12-24T03:51:39.108Z,4.71
2022-12-24T03:54:05.464Z,4.79
2022-12-24T03:56:31.869Z,4.66
2022-12-24T03:58:58.253Z,4.79
2022-12-24T04:01:24.794Z,4.77
2022-12-24T04:03:51.320Z,4.97
2022-12-24T04:06:18.005Z,4.90
2022-12-24T04:08:44.407Z,4.94
2022-12-24T04:11:12.053Z,4.79
2022-12-24T04:13:38.518Z,4.70
2022-12-24T04:16:06.384Z,4.77
2022-12-24T04:18:32.765Z,4.80
2022-12-24T04:20:59.435Z,4.81
2022-12-24T04:23:26.025Z,4.86
2022-12-24T04:25:52.393Z,4.82
2022-12-24T04:28:18.792Z,4.80
2022-12-24T04:30:45.138Z,4.66
2022-12-24T04:33:11.504Z,4.66
2022-12-24T04:35:41.529Z,4.89
2022-12-24T04:38:08.697Z,4.92
2022-12-24T04:40:35.469Z,4.72
2022-12-24T04:43:01.783Z,4.71
2022-12-24T04:45:28.243Z,4.57
2022-12-24T04:47:54.567Z,4.69
2022-12-24T04:50:20.934Z,4.54
2022-12-24T04:52:47.257Z,4.54
2022-12-24T04:55:13.603Z,4.58
2022-12-24T04:57:39.992Z,4.81
2022-12-24T05:00:07.270Z,4.79
2022-12-24T05:02:33.952Z,4.88
2022-12-24T05:05:00.497Z,4.76
2022-12-24T05:07:26.861Z,4.63
2022-12-24T05:09:53.207Z,4.58
2022-12-24T05:12:19.566Z,4.66
2022-12-24T05:14:46.013Z,4.78
2022-12-24T05:17:12.436Z,4.65
2022-12-24T05:19:38.824Z,4.54
2022-12-24T05:22:23.989Z,4.51
2022-12-24T05:25:09.223Z,4.64
2022-12-24T05:27:35.799Z,4.76
2022-12-24T05:30:02.147Z,4.73
2022-12-24T05:32:28.815Z,4.79
2022-12-24T05:34:55.183Z,4.87
2022-12-24T05:37:21.509Z,4.80
2022-12-24T05:39:47.929Z,4.84
2022-12-24T05:42:14.289Z,4.81
2022-12-24T05:44:40.689Z,4.83
2022-12-24T05:47:07.099Z,4.87
2022-12-24T05:49:33.500Z,4.88
2022-12-24T05:51:59.854Z,4.91
2022-12-24T05:54:26.248Z,4.88
2022-12-24T05:56:52.617Z,4.85
2022-12-24T05:59:19.037Z,4.83
2022-12-24T06:01:48.101Z,5.00
2022-12-24T06:04:14.710Z,4.86
2022-12-24T06:06:41.129Z,4.88
2022-12-24T06:09:07.524Z,4.73
2022-12-24T06:11:33.921Z,4.82
2022-12-24T06:14:00.320Z,4.74
2022-12-24T06:16:26.939Z,4.84
2022-12-24T06:18:53.483Z,4.74
2022-12-24T06:21:20.215Z,4.66
2022-12-24T06:23:46.937Z,4.71
2022-12-24T06:26:14.791Z,4.76
2022-12-24T06:28:41.139Z,4.69
2022-12-24T06:31:11.197Z,4.76
2022-12-24T06:33:37.629Z,4.84
2022-12-24T06:36:11.712Z,4.95
2022-12-24T06:38:41.464Z,4.73
2022-12-24T06:41:08.219Z,4.84
2022-12-24T06:43:34.934Z,4.90
2022-12-24T06:46:02.117Z,4.90
2022-12-24T06:48:28.659Z,4.77
2022-12-24T06:50:55.017Z,4.90
2022-12-24T06:53:21.503Z,4.77
2022-12-24T06:55:47.887Z,4.94
2022-12-24T06:58:14.457Z,4.88
2022-12-24T07:00:40.862Z,4.95
2022-12-24T07:03:07.281Z,5.03
2022-12-24T07:05:33.672Z,5.05
2022-12-24T07:08:00.001Z,5.02
2022-12-24T07:10:26.388Z,5.04
2022-12-24T07:12:52.809Z,5.03
2022-12-24T07:15:19.228Z,4.99
2022-12-24T07:17:45.628Z,4.99
2022-12-24T07:20:13.729Z,4.95
2022-12-24T07:22:40.171Z,4.78
2022-12-24T07:25:08.915Z,4.90
2022-12-24T07:27:35.493Z,4.59
2022-12-24T07:30:01.959Z,4.58
2022-12-24T07:32:28.338Z,4.74
2022-12-24T07:34:57.125Z,4.89
2022-12-24T07:37:23.522Z,4.64
2022-12-24T07:39:49.938Z,4.79
2022-12-24T07:42:16.517Z,4.73
2022-12-24T07:44:42.921Z,4.79
2022-12-24T07:47:09.441Z,4.86
2022-12-24T07:49:36.469Z,4.92
2022-12-24T07:52:03.246Z,4.92
2022-12-24T07:54:29.819Z,4.67
2022-12-24T07:56:56.243Z,4.77
2022-12-24T07:59:22.577Z,4.63
2022-12-24T08:01:49.107Z,4.81
2022-12-24T08:04:15.647Z,4.83
2022-12-24T08:06:42.045Z,5.03
2022-12-24T08:09:08.405Z,4.96
2022-12-24T08:11:34.776Z,4.98
2022-12-24T08:14:01.161Z,4.90
2022-12-24T08:16:27.664Z,4.92
2022-12-24T08:18:54.146Z,5.00
2022-12-24T08:21:20.536Z,4.92
2022-12-24T08:23:47.505Z,4.99
2022-12-24T08:26:14.014Z,4.88
2022-12-24T08:28:40.520Z,5.06
2022-12-24T08:31:06.960Z,4.90
2022-12-24T08:33:33.344Z,4.97
2022-12-24T08:36:01.049Z,4.83
2022-12-24T08:38:27.422Z,4.92
2022-12-24T08:40:54.749Z,5.03
2022-12-24T08:43:21.399Z,5.13
2022-12-24T08:45:49.591Z,4.99
2022-12-24T08:48:16.007Z,5.14
2022-12-24T08:50:42.849Z,4.94
2022-12-24T08:53:09.754Z,5.00
2022-12-24T08:55:36.419Z,5.11
2022-12-24T08:58:03.387Z,5.16
2022-12-24T09:00:29.924Z,5.18
2022-12-24T09:02:56.603Z,5.22
2022-12-24T09:05:23.046Z,4.94
2022-12-24T09:07:49.436Z,4.97
2022-12-24T09:10:17.198Z,5.15
2022-12-24T09:12:43.557Z,5.32
2022-12-24T09:15:33.143Z,5.23
2022-12-24T09:18:00.951Z,5.02
2022-12-24T09:20:42.703Z,5.04
2022-12-24T09:23:29.422Z,5.28
2022-12-24T09:26:05.648Z,5.31
2022-12-24T09:28:42.661Z,5.43
2022-12-24T09:31:19.098Z,5.34
2022-12-24T09:33:46.799Z,5.38
2022-12-24T09:36:17.404Z,5.45
2022-12-24T09:38:44.420Z,5.36
2022-12-24T09:41:30.244Z,5.36
2022-12-24T09:44:00.086Z,5.33
2022-12-24T09:46:50.818Z,5.12
2022-12-24T09:49:20.510Z,5.30
2022-12-24T09:51:55.776Z,5.48
2022-12-24T09:54:25.491Z,5.63
2022-12-24T09:56:52.256Z,5.40
2022-12-24T09:59:23.184Z,5.49
2022-12-24T10:01:51.716Z,5.58
2022-12-24T10:04:20.147Z,5.27
2022-12-24T10:07:04.272Z,5.48
2022-12-24T10:09:40.088Z,5.38
2022-12-24T10:12:15.478Z,5.54
2022-12-24T10:14:50.958Z,5.49
2022-12-24T10:17:23.575Z,5.62
2022-12-24T10:20:08.922Z,5.39
2022-12-24T10:22:50.389Z,5.54
2022-12-24T10:25:22.854Z,5.63
2022-12-24T10:27:49.283Z,5.79
2022-12-24T10:30:18.863Z,5.83
2022-12-24T10:32:47.028Z,5.88
2022-12-24T10:35:16.483Z,5.95
2022-12-24T10:37:44.233Z,5.99
2022-12-24T10:40:16.631Z,5.67
2022-12-24T10:42:50.261Z,5.37
2022-12-24T10:45:23.517Z,5.68
2022-12-24T10:47:57.813Z,5.63
2022-12-24T10:50:41.088Z,5.73
2022-12-24T10:53:15.493Z,5.87
2022-12-24T10:55:42.251Z,5.96
2022-12-24T10:58:15.605Z,5.91
2022-12-24T11:00:57.087Z,5.97
2022-12-24T11:03:28.746Z,5.94
2022-12-24T11:06:06.793Z,5.97
2022-12-24T11:08:36.094Z,6.00
2022-12-24T11:11:05.553Z,6.08
2022-12-24T11:13:38.274Z,6.12
2022-12-24T11:16:24.938Z,6.04
2022-12-24T11:18:53.180Z,5.91
2022-12-24T11:21:25.102Z,6.05
2022-12-24T11:23:53.473Z,6.07
2022-12-24T11:26:24.279Z,6.16
2022-12-24T11:29:16.616Z,6.02
2022-12-24T11:31:43.811Z,5.83
2022-12-24T11:34:37.189Z,5.89
2022-12-24T11:37:15.163Z,5.71
2022-12-24T11:39:45.112Z,5.75
2022-12-24T11:42:33.238Z,5.65
2022-12-24T11:45:01.087Z,5.92
2022-12-24T11:47:37.979Z,5.96
2022-12-24T11:50:20.994Z,6.11
2022-12-24T11:52:49.900Z,6.03
2022-12-24T11:55:30.437Z,6.07
2022-12-24T11:58:16.330Z,6.11
2022-12-24T12:00:44.546Z,6.26
2022-12-24T12:03:27.872Z,6.29
2022-12-24T12:05:59.412Z,6.08
2022-12-24T12:08:28.601Z,6.14
2022-12-24T12:10:56.442Z,6.18
2022-12-24T12:13:30.183Z,6.30
2022-12-24T12:16:26.197Z,6.13
2022-12-24T12:19:00.096Z,6.32
2022-12-24T12:21:35.730Z,6.49
2022-12-24T12:24:08.234Z,6.52
2022-12-24T12:26:34.837Z,6.15
2022-12-24T12:29:04.493Z,6.29
2022-12-24T12:31:31.076Z,6.15
2022-12-24T12:34:03.502Z,6.17
2022-12-24T12:36:32.911Z,6.21
2022-12-24T12:38:59.554Z,6.23
2022-12-24T12:41:45.175Z,6.32
2022-12-24T12:44:38.675Z,6.20
2022-12-24T12:47:23.617Z,6.42
2022-12-24T12:50:03.699Z,6.67
2022-12-24T12:52:36.210Z,6.52
2022-12-24T12:55:24.138Z,6.60
2022-12-24T12:57:56.581Z,6.72
2022-12-24T13:00:30.676Z,6.69
2022-12-24T13:03:25.788Z,6.83
2022-12-24T13:05:52.270Z,6.78
2022-12-24T13:08:30.982Z,6.72
2022-12-24T13:11:13.134Z,6.84
2022-12-24T13:13:42.644Z,6.97
2022-12-24T13:16:27.859Z,7.04
2022-12-24T13:19:18.094Z,7.05
2022-12-24T13:21:49.083Z,6.99
2022-12-24T13:24:19.831Z,7.10
2022-12-24T13:27:06.665Z,7.07
2022-12-24T13:29:36.105Z,7.15
2022-12-24T13:32:34.952Z,7.19
2022-12-24T13:35:03.148Z,7.23
2022-12-24T13:37:34.173Z,7.19
2022-12-24T13:40:00.506Z,7.31
2022-12-24T13:42:45.659Z,7.32
2022-12-24T13:45:32.902Z,7.38
2022-12-24T13:48:13.446Z,7.40
2022-12-24T13:50:53.374Z,7.36
2022-12-24T13:53:23.575Z,7.11
2022-12-24T13:55:55.045Z,7.12
2022-12-24T13:58:29.271Z,7.21
2022-12-24T14:00:57.981Z,7.48
2022-12-24T14:03:35.661Z,7.66
2022-12-24T14:06:10.660Z,7.65
2022-12-24T14:08:40.330Z,7.64
2022-12-24T14:11:10.276Z,7.66
2022-12-24T14:13:39.803Z,7.48
2022-12-24T14:16:06.419Z,7.51
2022-12-24T14:18:35.363Z,7.65
2022-12-24T14:21:02.286Z,7.62
2022-12-24T14:23:44.433Z,7.37
2022-12-24T14:26:18.558Z,7.39
2022-12-24T14:28:56.702Z,7.46
2022-12-24T14:31:23.372Z,7.66
2022-12-24T14:33:49.875Z,7.62
2022-12-24T14:36:20.139Z,7.58
2022-12-24T14:38:46.849Z,7.42
2022-12-24T14:41:34.194Z,7.38
2022-12-24T14:44:09.908Z,7.35
2022-12-24T14:46:48.599Z,7.36
2022-12-24T14:49:30.941Z,7.17
2022-12-24T14:52:05.377Z,7.23
2022-12-24T14:54:49.731Z,7.15
2022-12-24T14:57:53.062Z,7.18
2022-12-24T15:03:03.960Z,6.96
2022-12-24T15:05:33.145Z,6.86
2022-12-24T15:08:01.496Z,6.71
2022-12-24T15:11:02.347Z,6.73
2022-12-24T15:13:36.465Z,6.54
2022-12-24T15:16:05.507Z,6.47
2022-12-24T15:18:33.544Z,6.52
2022-12-24T15:21:04.628Z,6.39
2022-12-24T15:23:47.307Z,6.23
2022-12-24T15:26:30.271Z,6.12
2022-12-24T15:29:02.667Z,6.08
2022-12-24T15:31:29.974Z,6.00
2022-12-24T15:33:57.109Z,5.96
2022-12-24T15:36:27.315Z,5.79
2022-12-24T15:38:55.255Z,5.45
2022-12-24T15:41:23.967Z,5.29
2022-12-24T15:43:51.367Z,5.06
2022-12-24T15:46:22.439Z,4.99
2022-12-24T15:48:49.181Z,5.14
2022-12-24T15:51:21.597Z,5.06
2022-12-24T15:53:49.304Z,4.95
2022-12-24T15:56:27.943Z,5.02
2022-12-24T15:59:12.330Z,4.96
2022-12-24T16:01:44.751Z,4.80
2022-12-24T16:04:16.090Z,4.80
2022-12-24T16:06:53.718Z,4.97
2022-12-24T16:09:43.684Z,4.78
2022-12-24T16:12:15.969Z,4.76
2022-12-24T16:14:48.095Z,4.72
2022-12-24T16:17:22.685Z,4.68
2022-12-24T16:19:54.653Z,4.77
2022-12-24T16:22:31.447Z,4.80
2022-12-24T16:25:18.053Z,4.86
2022-12-24T16:27:47.668Z,4.83
2022-12-24T16:30:14.289Z,4.72
2022-12-24T16:32:42.193Z,4.65
2022-12-24T16:35:17.914Z,4.32
2022-12-24T16:37:44.302Z,4.36
2022-12-24T16:40:18.286Z,4.38
2022-12-24T16:43:04.615Z,4.46
2022-12-24T16:45:31.922Z,4.49
2022-12-24T16:47:58.916Z,4.41
2022-12-24T16:50:27.445Z,4.48
2022-12-24T16:52:56.421Z,4.27
2022-12-24T16:55:22.958Z,3.80
2022-12-24T16:57:51.703Z,3.94
2022-12-24T17:00:21.977Z,3.75
2022-12-24T17:02:49.609Z,3.84
2022-12-24T17:05:16.297Z,3.55
2022-12-24T17:07:44.010Z,3.65
2022-12-24T17:10:13.398Z,3.70
2022-12-24T17:12:39.986Z,3.75
2022-12-24T17:15:09.838Z,3.67
2022-12-24T17:17:36.289Z,3.66
2022-12-24T17:20:23.812Z,3.70
2022-12-24T17:22:50.776Z,3.80
2022-12-24T17:25:18.285Z,3.68
2022-12-24T17:27:46.343Z,3.67
2022-12-24T17:30:13.153Z,3.63
2022-12-24T17:32:43.914Z,3.53
2022-12-24T17:35:11.022Z,3.47
2022-12-24T17:37:40.561Z,3.66
2022-12-24T17:40:07.702Z,3.56
2022-12-24T17:42:36.875Z,3.57
2022-12-24T17:45:13.152Z,3.59
2022-12-24T17:47:39.615Z,3.49
2022-12-24T17:50:10.894Z,3.69
2022-12-24T17:52:43.923Z,3.80
2022-12-24T17:55:13.936Z,3.86
2022-12-24T17:57:44.081Z,3.82
2022-12-24T18:00:12.771Z,4.03
2022-12-24T18:02:39.360Z,4.15
2022-12-24T18:05:06.128Z,4.05
2022-12-24T18:07:32.646Z,4.02
2022-12-24T18:10:00.078Z,4.16
2022-12-24T18:12:26.711Z,4.05
2022-12-24T18:14:53.143Z,4.12
2022-12-24T18:17:19.574Z,4.23
2022-12-24T18:19:45.989Z,4.20
2022-12-24T18:22:12.360Z,4.17
2022-12-24T18:24:38.898Z,4.15
2022-12-24T18:27:05.330Z,4.24
2022-12-24T18:29:31.879Z,4.38
2022-12-24T18:32:00.949Z,4.23
2022-12-24T18:34:27.517Z,4.41
2022-12-24T18:36:55.684Z,4.41
2022-12-24T18:39:22.477Z,4.61
2022-12-24T18:41:49.692Z,4.64
2022-12-24T18:44:22.544Z,4.51
2022-12-24T18:46:51.309Z,4.71
2022-12-24T18:49:17.721Z,4.77
2022-12-24T18:51:44.084Z,4.82
2022-12-24T18:54:10.524Z,4.95
2022-12-24T18:56:37.032Z,4.97
2022-12-24T18:59:03.749Z,4.92
2022-12-24T19:01:35.656Z,4.97
2022-12-24T19:04:02.235Z,5.01
2022-12-24T19:06:29.780Z,5.12
2022-12-24T19:08:58.234Z,5.24
2022-12-24T19:11:26.320Z,5.27
2022-12-24T19:13:55.744Z,5.24
2022-12-24T19:16:22.330Z,5.34
2022-12-24T19:18:48.894Z,5.34
2022-12-24T19:21:16.245Z,5.39
2022-12-24T19:23:43.024Z,5.43
2022-12-24T19:26:10.495Z,5.51
2022-12-24T19:28:37.392Z,5.47
2022-12-24T19:31:08.354Z,5.45
2022-12-24T19:33:43.320Z,5.43
2022-12-24T19:36:11.649Z,5.58
2022-12-24T19:38:38.152Z,5.65
2022-12-24T19:41:06.853Z,5.67
2022-12-24T19:43:33.798Z,5.55
2022-12-24T19:46:03.183Z,5.65
2022-12-24T19:48:30.102Z,5.62
2022-12-24T19:51:01.792Z,5.60
2022-12-24T19:53:28.713Z,5.57
2022-12-24T19:55:59.038Z,5.67
2022-12-24T19:58:35.617Z,5.46
2022-12-24T20:01:15.476Z,5.45
2022-12-24T20:03:42.511Z,5.53
2022-12-24T20:06:14.067Z,5.45
2022-12-24T20:08:41.077Z,5.39
2022-12-24T20:11:11.885Z,5.48
2022-12-24T20:13:40.439Z,5.26
2022-12-24T20:16:08.267Z,5.36
2022-12-24T20:18:35.614Z,5.44
2022-12-24T20:21:05.477Z,5.26
2022-12-24T20:23:32.316Z,5.32
2022-12-24T20:26:03.210Z,5.36
2022-12-24T20:28:33.045Z,5.31
2022-12-24T20:31:09.221Z,5.48
2022-12-24T20:33:35.866Z,5.43
2022-12-24T20:36:14.253Z,5.51
2022-12-24T20:38:42.928Z,5.59
2022-12-24T20:41:10.640Z,5.68
2022-12-24T20:43:45.063Z,5.60
2022-12-24T20:46:14.225Z,5.74
2022-12-24T20:48:41.793Z,5.73
2022-12-24T20:51:21.015Z,5.79
2022-12-24T20:53:50.244Z,5.73
2022-12-24T20:56:18.161Z,5.85
2022-12-24T20:58:48.048Z,5.88
2022-12-24T21:01:17.146Z,5.80
2022-12-24T21:03:45.932Z,5.88
2022-12-24T21:06:20.001Z,5.78
2022-12-24T21:08:54.768Z,5.85
2022-12-24T21:11:41.820Z,5.82
2022-12-24T21:14:08.461Z,5.91
2022-12-24T21:16:35.982Z,5.95
2022-12-24T21:19:03.399Z,6.00
2022-12-24T21:21:32.605Z,6.05
2022-12-24T21:23:59.371Z,5.95
2022-12-24T21:26:28.097Z,5.95
2022-12-24T21:28:57.031Z,5.98
2022-12-24T21:31:26.063Z,5.98
2022-12-24T21:33:55.745Z,5.79
2022-12-24T21:36:25.434Z,5.93
2022-12-24T21:38:55.009Z,5.94
2022-12-24T21:41:26.125Z,5.89
2022-12-24T21:43:57.058Z,6.04
2022-12-24T21:46:25.510Z,6.05
2022-12-24T21:49:14.382Z,6.07
2022-12-24T21:51:43.462Z,5.98
2022-12-24T21:54:30.781Z,5.86
2022-12-24T21:57:17.594Z,5.98
2022-12-24T21:59:44.300Z,5.90
2022-12-24T22:02:17.483Z,5.96
2022-12-24T22:04:44.246Z,6.00
2022-12-24T22:07:45.827Z,6.05
2022-12-24T22:10:31.911Z,5.85
2022-12-24T22:13:07.118Z,5.99
2022-12-24T22:15:38.214Z,5.96
2022-12-24T22:18:04.840Z,5.97
2022-12-24T22:20:32.496Z,5.92
2022-12-24T22:22:58.906Z,6.01
2022-12-24T22:25:29.639Z,6.00
2022-12-24T22:28:01.622Z,5.92
2022-12-24T22:30:29.895Z,5.81
2022-12-24T22:33:12.794Z,5.98
2022-12-24T22:39:18.793Z,5.98
2022-12-24T22:41:45.520Z,5.96
2022-12-24T22:44:12.229Z,5.96
2022-12-24T22:46:38.978Z,6.00
2022-12-24T22:49:08.321Z,5.93
2022-12-24T22:51:37.858Z,5.95
2022-12-24T22:54:04.362Z,5.98
2022-12-24T22:56:40.440Z,6.00
2022-12-24T22:59:15.478Z,5.98
2022-12-24T23:01:51.259Z,6.00
2022-12-24T23:04:18.128Z,6.10
2022-12-24T23:06:44.745Z,6.08
2022-12-24T23:09:12.480Z,5.90
2022-12-24T23:11:39.649Z,6.01
2022-12-24T23:14:24.763Z,5.87
2022-12-24T23:17:00.503Z,5.90
2022-12-24T23:19:26.907Z,6.00
2022-12-24T23:21:53.394Z,6.02
2022-12-24T23:24:19.973Z,5.90
2022-12-24T23:26:46.695Z,5.83
2022-12-24T23:29:13.119Z,5.85
2022-12-24T23:31:39.496Z,5.99
2022-12-24T23:34:05.985Z,5.95
2022-12-24T23:36:56.983Z,5.85
2022-12-24T23:39:34.146Z,5.94
2022-12-24T23:42:00.524Z,5.98
2022-12-24T23:44:32.177Z,5.97
2022-12-24T23:47:03.453Z,5.81
2022-12-24T23:49:30.165Z,5.59
2022-12-24T23:51:56.562Z,5.49
2022-12-24T23:54:22.906Z,5.60
2022-12-24T23:56:55.397Z,5.63
2022-12-24T23:59:21.822Z,5.57
